sensor_id;sensor_type;location;lat;lon;timestamp;P1;durP1;ratioP1;P2;durP2;ratioP2
74519;SDS011;63002;48.134;-1.948;2023-12-07T06:00:41;28.10;;;7.45;;
74519;SDS011;63002;48.134;-1.948;2023-12-07T06:03:08;18.30;;;7.43;;
74519;SDS011;63002;48.134;-1.948;2023-12-07T06:05:37;18.92;;;6.90;;
74519;SDS011;63002;48.134;-1.948;2023-12-07T06:08:03;19.27;;;6.95;;
74519;SDS011;63002;48.134;-1.948;2023-12-07T06:10:29;18.35;;;5.90;;
74519;SDS011;63002;48.134;-1.948;2023-12-07T06:12:55;14.85;;;6.10;;
74519;SDS011;63002;48.134;-1.948;2023-12-07T06:15:23;13.50;;;5.40;;
74519;SDS011;63002;48.134;-1.948;2023-12-07T06:17:49;13.10;;;5.28;;
74519;SDS011;63002;48.134;-1.948;2023-12-07T06:20:15;12.30;;;5.17;;
74519;SDS011;63002;48.134;-1.948;2023-12-07T06:22:40;12.82;;;5.07;;
74519;SDS011;63002;48.134;-1.948;2023-12-07T06:25:06;11.93;;;4.72;;
74519;SDS011;63002;48.134;-1.948;2023-12-07T06:27:34;13.05;;;4.93;;
74519;SDS011;63002;48.134;-1.948;2023-12-07T06:30:00;11.20;;;4.37;;
74519;SDS011;63002;48.134;-1.948;2023-12-07T06:32:26;14.82;;;4.88;;
74519;SDS011;63002;48.134;-1.948;2023-12-07T06:34:52;11.93;;;5.13;;
74519;SDS011;63002;48.134;-1.948;2023-12-07T06:37:18;16.80;;;7.13;;
74519;SDS011;63002;48.134;-1.948;2023-12-07T06:39:45;23.13;;;10.20;;
74519;SDS011;63002;48.134;-1.948;2023-12-07T06:42:11;19.13;;;9.73;;
74519;SDS011;63002;48.134;-1.948;2023-12-07T06:44:36;21.47;;;9.60;;
74519;SDS011;63002;48.134;-1.948;2023-12-07T06:47:02;19.88;;;9.25;;
74519;SDS011;63002;48.134;-1.948;2023-12-07T06:49:29;22.40;;;9.00;;
74519;SDS011;63002;48.134;-1.948;2023-12-07T06:51:55;18.55;;;8.82;;
74519;SDS011;63002;48.134;-1.948;2023-12-07T06:54:21;21.25;;;8.32;;
74519;SDS011;63002;48.134;-1.948;2023-12-07T06:56:47;19.67;;;7.73;;
74519;SDS011;63002;48.134;-1.948;2023-12-07T06:59:13;19.27;;;7.88;;
74519;SDS011;63002;48.134;-1.948;2023-12-07T07:01:39;16.87;;;6.93;;
74519;SDS011;63002;48.134;-1.948;2023-12-07T07:04:05;17.77;;;6.88;;
74519;SDS011;63002;48.134;-1.948;2023-12-07T07:06:31;16.70;;;7.10;;
74519;SDS011;63002;48.134;-1.948;2023-12-07T07:08:56;15.50;;;6.73;;
74519;SDS011;63002;48.134;-1.948;2023-12-07T07:11:22;14.63;;;6.70;;
74519;SDS011;63002;48.134;-1.948;2023-12-07T07:13:48;15.20;;;6.35;;
74519;SDS011;63002;48.134;-1.948;2023-12-07T07:16:13;14.57;;;6.47;;
74519;SDS011;63002;48.134;-1.948;2023-12-07T07:18:39;14.95;;;6.22;;
74519;SDS011;63002;48.134;-1.948;2023-12-07T07:21:06;13.57;;;5.68;;
74519;SDS011;63002;48.134;-1.948;2023-12-07T07:23:32;12.87;;;5.47;;
74519;SDS011;63002;48.134;-1.948;2023-12-07T07:25:58;15.68;;;5.70;;
74519;SDS011;63002;48.134;-1.948;2023-12-07T07:28:24;13.25;;;5.00;;
74519;SDS011;63002;48.134;-1.948;2023-12-07T07:30:50;13.10;;;5.40;;
74519;SDS011;63002;48.134;-1.948;2023-12-07T07:33:16;14.75;;;5.75;;
74519;SDS011;63002;48.134;-1.948;2023-12-07T07:35:42;13.75;;;4.95;;
74519;SDS011;63002;48.134;-1.948;2023-12-07T07:38:08;11.07;;;4.68;;
74519;SDS011;63002;48.134;-1.948;2023-12-07T07:40:33;13.77;;;5.27;;
74519;SDS011;63002;48.134;-1.948;2023-12-07T07:42:59;12.00;;;4.10;;
74519;SDS011;63002;48.134;-1.948;2023-12-07T07:45:25;12.93;;;4.63;;
74519;SDS011;63002;48.134;-1.948;2023-12-07T07:47:50;11.13;;;4.63;;
74519;SDS011;63002;48.134;-1.948;2023-12-07T07:50:16;12.20;;;4.37;;
74519;SDS011;63002;48.134;-1.948;2023-12-07T07:52:42;10.82;;;3.85;;
74519;SDS011;63002;48.134;-1.948;2023-12-07T07:55:09;13.37;;;4.40;;
74519;SDS011;63002;48.134;-1.948;2023-12-07T07:57:36;10.75;;;3.92;;
74519;SDS011;63002;48.134;-1.948;2023-12-07T08:00:02;10.18;;;3.38;;
74519;SDS011;63002;48.134;-1.948;2023-12-07T08:02:30;9.90;;;3.08;;
74519;SDS011;63002;48.134;-1.948;2023-12-07T08:04:56;11.60;;;3.78;;
74519;SDS011;63002;48.134;-1.948;2023-12-07T08:07:21;10.05;;;3.38;;
74519;SDS011;63002;48.134;-1.948;2023-12-07T08:09:47;11.60;;;3.47;;
74519;SDS011;63002;48.134;-1.948;2023-12-07T08:12:13;9.63;;;3.20;;
74519;SDS011;63002;48.134;-1.948;2023-12-07T08:14:39;10.48;;;3.20;;
74519;SDS011;63002;48.134;-1.948;2023-12-07T08:17:05;9.65;;;3.72;;
74519;SDS011;63002;48.134;-1.948;2023-12-07T08:19:30;9.07;;;3.00;;
74519;SDS011;63002;48.134;-1.948;2023-12-07T08:21:56;10.45;;;3.65;;
74519;SDS011;63002;48.134;-1.948;2023-12-07T08:24:22;8.77;;;2.80;;
74519;SDS011;63002;48.134;-1.948;2023-12-07T08:26:48;8.52;;;2.80;;
74519;SDS011;63002;48.134;-1.948;2023-12-07T08:29:13;9.97;;;2.93;;
74519;SDS011;63002;48.134;-1.948;2023-12-07T08:31:42;8.98;;;2.80;;
74519;SDS011;63002;48.134;-1.948;2023-12-07T08:34:08;8.52;;;2.80;;
74519;SDS011;63002;48.134;-1.948;2023-12-07T08:36:34;8.48;;;2.67;;
74519;SDS011;63002;48.134;-1.948;2023-12-07T08:38:59;8.20;;;2.60;;
74519;SDS011;63002;48.134;-1.948;2023-12-07T08:41:25;8.07;;;2.47;;
74519;SDS011;63002;48.134;-1.948;2023-12-07T08:43:51;8.93;;;2.60;;
74519;SDS011;63002;48.134;-1.948;2023-12-07T08:46:16;9.10;;;2.85;;
74519;SDS011;63002;48.134;-1.948;2023-12-07T08:48:42;7.80;;;2.20;;
74519;SDS011;63002;48.134;-1.948;2023-12-07T08:51:08;8.10;;;2.58;;
74519;SDS011;63002;48.134;-1.948;2023-12-07T08:53:34;8.50;;;2.47;;
74519;SDS011;63002;48.134;-1.948;2023-12-07T08:56:00;8.05;;;2.33;;
74519;SDS011;63002;48.134;-1.948;2023-12-07T08:58:26;8.80;;;2.55;;
74519;SDS011;63002;48.134;-1.948;2023-12-07T09:00:52;9.27;;;2.20;;
74519;SDS011;63002;48.134;-1.948;2023-12-07T09:03:18;8.27;;;2.42;;
74519;SDS011;63002;48.134;-1.948;2023-12-07T09:05:44;6.60;;;2.07;;
74519;SDS011;63002;48.134;-1.948;2023-12-07T09:08:09;6.15;;;2.00;;
74519;SDS011;63002;48.134;-1.948;2023-12-07T09:10:35;8.07;;;2.37;;
74519;SDS011;63002;48.134;-1.948;2023-12-07T09:13:01;7.18;;;1.90;;
74519;SDS011;63002;48.134;-1.948;2023-12-07T09:15:27;6.80;;;2.07;;
74519;SDS011;63002;48.134;-1.948;2023-12-07T09:17:52;6.85;;;2.15;;
74519;SDS011;63002;48.134;-1.948;2023-12-07T09:20:18;5.87;;;1.90;;
74519;SDS011;63002;48.134;-1.948;2023-12-07T09:22:44;8.02;;;2.25;;
74519;SDS011;63002;48.134;-1.948;2023-12-07T09:25:11;9.45;;;1.95;;
74519;SDS011;63002;48.134;-1.948;2023-12-07T09:27:37;8.80;;;2.00;;
74519;SDS011;63002;48.134;-1.948;2023-12-07T09:30:07;6.97;;;2.00;;
74519;SDS011;63002;48.134;-1.948;2023-12-07T09:32:37;6.15;;;1.73;;
74519;SDS011;63002;48.134;-1.948;2023-12-07T09:35:07;6.05;;;1.77;;
74519;SDS011;63002;48.134;-1.948;2023-12-07T09:37:39;5.60;;;1.50;;
74519;SDS011;63002;48.134;-1.948;2023-12-07T09:40:06;6.05;;;1.80;;
74519;SDS011;63002;48.134;-1.948;2023-12-07T09:42:33;6.13;;;1.73;;
74519;SDS011;63002;48.134;-1.948;2023-12-07T09:44:59;8.77;;;1.85;;
74519;SDS011;63002;48.134;-1.948;2023-12-07T09:47:27;5.78;;;1.60;;
74519;SDS011;63002;48.134;-1.948;2023-12-07T09:49:55;5.70;;;1.60;;
74519;SDS011;63002;48.134;-1.948;2023-12-07T09:52:22;6.05;;;1.60;;
74519;SDS011;63002;48.134;-1.948;2023-12-07T09:54:50;7.28;;;2.00;;
74519;SDS011;63002;48.134;-1.948;2023-12-07T09:57:16;6.88;;;1.65;;
74519;SDS011;63002;48.134;-1.948;2023-12-07T09:59:42;7.47;;;1.60;;
74519;SDS011;63002;48.134;-1.948;2023-12-07T10:02:08;6.35;;;1.60;;
74519;SDS011;63002;48.134;-1.948;2023-12-07T10:04:33;7.03;;;1.93;;
74519;SDS011;63002;48.134;-1.948;2023-12-07T10:06:59;5.07;;;1.70;;
74519;SDS011;63002;48.134;-1.948;2023-12-07T10:09:25;6.60;;;1.70;;
74519;SDS011;63002;48.134;-1.948;2023-12-07T10:12:01;5.03;;;1.63;;
74519;SDS011;63002;48.134;-1.948;2023-12-07T10:14:30;5.22;;;1.50;;
74519;SDS011;63002;48.134;-1.948;2023-12-07T10:16:56;6.00;;;1.30;;
74519;SDS011;63002;48.134;-1.948;2023-12-07T10:19:23;4.97;;;1.20;;
74519;SDS011;63002;48.134;-1.948;2023-12-07T10:21:50;6.45;;;1.50;;
74519;SDS011;63002;48.134;-1.948;2023-12-07T10:24:21;6.45;;;1.50;;
74519;SDS011;63002;48.134;-1.948;2023-12-07T10:26:48;6.05;;;1.67;;
74519;SDS011;63002;48.134;-1.948;2023-12-07T10:29:14;4.73;;;1.30;;
74519;SDS011;63002;48.134;-1.948;2023-12-07T10:31:42;5.18;;;1.38;;
74519;SDS011;63002;48.134;-1.948;2023-12-07T10:34:09;4.28;;;1.25;;
74519;SDS011;63002;48.134;-1.948;2023-12-07T10:36:34;5.63;;;1.35;;
74519;SDS011;63002;48.134;-1.948;2023-12-07T10:39:00;4.70;;;1.20;;
74519;SDS011;63002;48.134;-1.948;2023-12-07T10:41:26;4.38;;;1.30;;
74519;SDS011;63002;48.134;-1.948;2023-12-07T10:43:53;5.77;;;1.47;;
74519;SDS011;63002;48.134;-1.948;2023-12-07T10:46:26;4.78;;;1.38;;
74519;SDS011;63002;48.134;-1.948;2023-12-07T10:49:03;5.30;;;1.20;;
74519;SDS011;63002;48.134;-1.948;2023-12-07T10:51:50;6.32;;;1.45;;
74519;SDS011;63002;48.134;-1.948;2023-12-07T10:54:23;4.57;;;1.30;;
74519;SDS011;63002;48.134;-1.948;2023-12-07T10:56:54;4.00;;;1.08;;
74519;SDS011;63002;48.134;-1.948;2023-12-07T10:59:21;5.60;;;1.50;;
74519;SDS011;63002;48.134;-1.948;2023-12-07T11:01:49;3.75;;;0.90;;
74519;SDS011;63002;48.134;-1.948;2023-12-07T11:04:17;5.85;;;1.10;;
74519;SDS011;63002;48.134;-1.948;2023-12-07T11:06:45;4.10;;;1.30;;
74519;SDS011;63002;48.134;-1.948;2023-12-07T11:09:15;4.73;;;1.03;;
74519;SDS011;63002;48.134;-1.948;2023-12-07T11:11:55;4.40;;;1.15;;
74519;SDS011;63002;48.134;-1.948;2023-12-07T11:14:25;5.55;;;1.15;;
74519;SDS011;63002;48.134;-1.948;2023-12-07T11:16:52;5.25;;;1.08;;
74519;SDS011;63002;48.134;-1.948;2023-12-07T11:22:07;3.85;;;1.13;;
74519;SDS011;63002;48.134;-1.948;2023-12-07T11:24:38;4.25;;;0.98;;
74519;SDS011;63002;48.134;-1.948;2023-12-07T11:27:16;4.05;;;1.10;;
74519;SDS011;63002;48.134;-1.948;2023-12-07T11:29:42;4.97;;;1.15;;
74519;SDS011;63002;48.134;-1.948;2023-12-07T11:32:13;4.27;;;1.07;;
74519;SDS011;63002;48.134;-1.948;2023-12-07T11:34:40;4.18;;;1.00;;
74519;SDS011;63002;48.134;-1.948;2023-12-07T11:37:07;3.80;;;1.15;;
74519;SDS011;63002;48.134;-1.948;2023-12-07T11:39:36;4.43;;;1.10;;
74519;SDS011;63002;48.134;-1.948;2023-12-07T11:42:09;3.60;;;0.90;;
74519;SDS011;63002;48.134;-1.948;2023-12-07T11:44:40;4.23;;;0.97;;
74519;SDS011;63002;48.134;-1.948;2023-12-07T11:47:07;5.13;;;1.40;;
74519;SDS011;63002;48.134;-1.948;2023-12-07T11:49:34;4.43;;;1.08;;
74519;SDS011;63002;48.134;-1.948;2023-12-07T11:52:01;4.35;;;1.00;;
74519;SDS011;63002;48.134;-1.948;2023-12-07T11:54:37;3.67;;;1.23;;
74519;SDS011;63002;48.134;-1.948;2023-12-07T11:57:03;4.33;;;1.20;;
74519;SDS011;63002;48.134;-1.948;2023-12-07T11:59:29;4.05;;;0.80;;
74519;SDS011;63002;48.134;-1.948;2023-12-07T12:01:55;4.13;;;1.02;;
74519;SDS011;63002;48.134;-1.948;2023-12-07T12:04:24;3.83;;;1.00;;
74519;SDS011;63002;48.134;-1.948;2023-12-07T12:06:50;2.90;;;1.10;;
74519;SDS011;63002;48.134;-1.948;2023-12-07T12:09:15;3.35;;;1.02;;
74519;SDS011;63002;48.134;-1.948;2023-12-07T12:11:48;4.75;;;1.10;;
74519;SDS011;63002;48.134;-1.948;2023-12-07T12:14:15;3.20;;;1.00;;
74519;SDS011;63002;48.134;-1.948;2023-12-07T12:16:42;3.20;;;0.80;;
74519;SDS011;63002;48.134;-1.948;2023-12-07T12:19:10;3.30;;;0.90;;
74519;SDS011;63002;48.134;-1.948;2023-12-07T12:21:36;2.78;;;0.75;;
74519;SDS011;63002;48.134;-1.948;2023-12-07T12:24:06;2.38;;;0.68;;
74519;SDS011;63002;48.134;-1.948;2023-12-07T12:26:35;2.90;;;0.80;;
74519;SDS011;63002;48.134;-1.948;2023-12-07T12:29:03;3.30;;;0.82;;
74519;SDS011;63002;48.134;-1.948;2023-12-07T12:31:30;3.15;;;1.10;;
74519;SDS011;63002;48.134;-1.948;2023-12-07T12:33:56;4.38;;;0.80;;
74519;SDS011;63002;48.134;-1.948;2023-12-07T12:36:22;3.63;;;0.60;;
74519;SDS011;63002;48.134;-1.948;2023-12-07T12:38:48;3.15;;;0.80;;
74519;SDS011;63002;48.134;-1.948;2023-12-07T12:41:19;3.55;;;0.60;;
74519;SDS011;63002;48.134;-1.948;2023-12-07T12:43:45;6.07;;;1.07;;
74519;SDS011;63002;48.134;-1.948;2023-12-07T12:46:11;2.33;;;0.52;;
74519;SDS011;63002;48.134;-1.948;2023-12-07T12:48:51;2.97;;;0.80;;
74519;SDS011;63002;48.134;-1.948;2023-12-07T12:51:24;2.92;;;0.90;;
74519;SDS011;63002;48.134;-1.948;2023-12-07T12:53:51;1.98;;;0.52;;
74519;SDS011;63002;48.134;-1.948;2023-12-07T12:56:18;3.10;;;0.83;;
74519;SDS011;63002;48.134;-1.948;2023-12-07T12:58:46;3.70;;;0.80;;
74519;SDS011;63002;48.134;-1.948;2023-12-07T13:01:13;2.63;;;0.80;;
74519;SDS011;63002;48.134;-1.948;2023-12-07T13:03:41;3.15;;;0.65;;
74519;SDS011;63002;48.134;-1.948;2023-12-07T13:06:06;2.47;;;0.50;;
74519;SDS011;63002;48.134;-1.948;2023-12-07T13:08:32;2.17;;;0.70;;
74519;SDS011;63002;48.134;-1.948;2023-12-07T13:10:58;3.40;;;0.83;;
74519;SDS011;63002;48.134;-1.948;2023-12-07T13:13:24;3.13;;;0.63;;
74519;SDS011;63002;48.134;-1.948;2023-12-07T13:15:50;3.05;;;0.73;;
74519;SDS011;63002;48.134;-1.948;2023-12-07T13:18:15;3.10;;;1.00;;
74519;SDS011;63002;48.134;-1.948;2023-12-07T13:20:43;2.70;;;0.70;;
74519;SDS011;63002;48.134;-1.948;2023-12-07T13:23:09;2.00;;;0.60;;
74519;SDS011;63002;48.134;-1.948;2023-12-07T13:25:34;4.20;;;0.65;;
74519;SDS011;63002;48.134;-1.948;2023-12-07T13:28:00;2.40;;;0.80;;
74519;SDS011;63002;48.134;-1.948;2023-12-07T13:30:26;2.40;;;0.70;;
74519;SDS011;63002;48.134;-1.948;2023-12-07T13:32:54;2.23;;;0.40;;
74519;SDS011;63002;48.134;-1.948;2023-12-07T13:35:20;3.03;;;0.80;;
74519;SDS011;63002;48.134;-1.948;2023-12-07T13:37:46;2.25;;;0.50;;
74519;SDS011;63002;48.134;-1.948;2023-12-07T13:40:12;1.87;;;0.53;;
74519;SDS011;63002;48.134;-1.948;2023-12-07T13:42:40;2.42;;;0.60;;
74519;SDS011;63002;48.134;-1.948;2023-12-07T13:45:06;1.75;;;0.60;;
74519;SDS011;63002;48.134;-1.948;2023-12-07T13:47:33;2.27;;;0.60;;
74519;SDS011;63002;48.134;-1.948;2023-12-07T13:50:02;2.08;;;0.50;;
74519;SDS011;63002;48.134;-1.948;2023-12-07T13:52:28;2.22;;;0.70;;
74519;SDS011;63002;48.134;-1.948;2023-12-07T13:54:55;2.20;;;0.50;;
74519;SDS011;63002;48.134;-1.948;2023-12-07T13:57:21;1.75;;;0.50;;
74519;SDS011;63002;48.134;-1.948;2023-12-07T13:59:51;1.67;;;0.57;;
74519;SDS011;63002;48.134;-1.948;2023-12-07T14:02:18;3.00;;;0.80;;
74519;SDS011;63002;48.134;-1.948;2023-12-07T14:04:44;3.10;;;0.80;;
74519;SDS011;63002;48.134;-1.948;2023-12-07T14:07:14;2.83;;;0.50;;
74519;SDS011;63002;48.134;-1.948;2023-12-07T14:09:41;2.78;;;0.77;;
74519;SDS011;63002;48.134;-1.948;2023-12-07T14:12:08;2.33;;;0.67;;
74519;SDS011;63002;48.134;-1.948;2023-12-07T14:14:44;2.30;;;0.63;;
74519;SDS011;63002;48.134;-1.948;2023-12-07T14:17:14;2.53;;;0.73;;
74519;SDS011;63002;48.134;-1.948;2023-12-07T14:19:41;1.98;;;0.50;;
74519;SDS011;63002;48.134;-1.948;2023-12-07T14:22:07;1.90;;;0.50;;
74519;SDS011;63002;48.134;-1.948;2023-12-07T14:24:34;2.67;;;0.60;;
74519;SDS011;63002;48.134;-1.948;2023-12-07T14:27:04;3.35;;;0.70;;
74519;SDS011;63002;48.134;-1.948;2023-12-07T14:29:31;1.65;;;0.40;;
74519;SDS011;63002;48.134;-1.948;2023-12-07T14:31:57;2.63;;;0.70;;
74519;SDS011;63002;48.134;-1.948;2023-12-07T14:34:23;1.42;;;0.50;;
74519;SDS011;63002;48.134;-1.948;2023-12-07T14:36:51;2.50;;;0.60;;
74519;SDS011;63002;48.134;-1.948;2023-12-07T14:39:17;2.35;;;0.60;;
74519;SDS011;63002;48.134;-1.948;2023-12-07T14:41:44;3.22;;;0.90;;
74519;SDS011;63002;48.134;-1.948;2023-12-07T14:44:14;1.95;;;0.57;;
74519;SDS011;63002;48.134;-1.948;2023-12-07T14:46:44;2.17;;;0.60;;
74519;SDS011;63002;48.134;-1.948;2023-12-07T14:49:14;2.00;;;0.50;;
74519;SDS011;63002;48.134;-1.948;2023-12-07T14:51:42;2.28;;;0.60;;
74519;SDS011;63002;48.134;-1.948;2023-12-07T14:54:08;2.38;;;0.70;;
74519;SDS011;63002;48.134;-1.948;2023-12-07T14:56:39;1.88;;;0.55;;
74519;SDS011;63002;48.134;-1.948;2023-12-07T14:59:06;2.08;;;0.60;;
74519;SDS011;63002;48.134;-1.948;2023-12-07T15:01:41;2.43;;;0.63;;
74519;SDS011;63002;48.134;-1.948;2023-12-07T15:04:06;2.33;;;0.50;;
74519;SDS011;63002;48.134;-1.948;2023-12-07T15:06:33;1.65;;;0.50;;
74519;SDS011;63002;48.134;-1.948;2023-12-07T15:08:58;2.17;;;0.57;;
74519;SDS011;63002;48.134;-1.948;2023-12-07T15:11:24;2.60;;;0.50;;
74519;SDS011;63002;48.134;-1.948;2023-12-07T15:13:50;2.38;;;0.70;;
74519;SDS011;63002;48.134;-1.948;2023-12-07T15:16:16;2.20;;;0.40;;
74519;SDS011;63002;48.134;-1.948;2023-12-07T15:18:42;2.60;;;0.70;;
74519;SDS011;63002;48.134;-1.948;2023-12-07T15:21:11;2.70;;;0.50;;
74519;SDS011;63002;48.134;-1.948;2023-12-07T15:23:39;2.90;;;0.80;;
74519;SDS011;63002;48.134;-1.948;2023-12-07T15:26:05;2.17;;;0.50;;
74519;SDS011;63002;48.134;-1.948;2023-12-07T15:28:33;2.75;;;0.80;;
74519;SDS011;63002;48.134;-1.948;2023-12-07T15:30:59;2.03;;;0.52;;
74519;SDS011;63002;48.134;-1.948;2023-12-07T15:33:24;2.27;;;0.70;;
74519;SDS011;63002;48.134;-1.948;2023-12-07T15:35:51;2.33;;;0.60;;
74519;SDS011;63002;48.134;-1.948;2023-12-07T15:38:17;2.30;;;0.75;;
74519;SDS011;63002;48.134;-1.948;2023-12-07T15:40:43;2.20;;;0.50;;
74519;SDS011;63002;48.134;-1.948;2023-12-07T15:43:09;1.35;;;0.32;;
74519;SDS011;63002;48.134;-1.948;2023-12-07T15:45:35;1.83;;;0.40;;
74519;SDS011;63002;48.134;-1.948;2023-12-07T15:48:01;1.80;;;0.60;;
74519;SDS011;63002;48.134;-1.948;2023-12-07T15:50:26;1.40;;;0.40;;
74519;SDS011;63002;48.134;-1.948;2023-12-07T15:52:52;2.85;;;0.50;;
74519;SDS011;63002;48.134;-1.948;2023-12-07T15:55:18;2.60;;;0.80;;
74519;SDS011;63002;48.134;-1.948;2023-12-07T15:57:44;3.30;;;0.60;;
74519;SDS011;63002;48.134;-1.948;2023-12-07T16:00:10;2.45;;;0.70;;
74519;SDS011;63002;48.134;-1.948;2023-12-07T16:02:36;1.80;;;0.50;;
74519;SDS011;63002;48.134;-1.948;2023-12-07T16:05:04;1.90;;;0.50;;
74519;SDS011;63002;48.134;-1.948;2023-12-07T16:07:33;1.52;;;0.40;;
74519;SDS011;63002;48.134;-1.948;2023-12-07T16:10:04;2.23;;;0.60;;
74519;SDS011;63002;48.134;-1.948;2023-12-07T16:12:36;1.20;;;0.40;;
74519;SDS011;63002;48.134;-1.948;2023-12-07T16:15:16;3.10;;;0.80;;
74519;SDS011;63002;48.134;-1.948;2023-12-07T16:17:42;2.75;;;0.90;;
74519;SDS011;63002;48.134;-1.948;2023-12-07T16:20:08;1.60;;;0.60;;
74519;SDS011;63002;48.134;-1.948;2023-12-07T16:22:40;2.20;;;0.50;;
74519;SDS011;63002;48.134;-1.948;2023-12-07T16:25:06;2.38;;;0.52;;
74519;SDS011;63002;48.134;-1.948;2023-12-07T16:27:32;2.63;;;0.75;;
74519;SDS011;63002;48.134;-1.948;2023-12-07T16:29:57;1.90;;;0.57;;
74519;SDS011;63002;48.134;-1.948;2023-12-07T16:32:23;2.10;;;0.60;;
74519;SDS011;63002;48.134;-1.948;2023-12-07T16:34:49;2.83;;;0.87;;
74519;SDS011;63002;48.134;-1.948;2023-12-07T16:37:15;2.13;;;0.60;;
74519;SDS011;63002;48.134;-1.948;2023-12-07T16:39:41;2.03;;;0.73;;
74519;SDS011;63002;48.134;-1.948;2023-12-07T16:42:10;2.08;;;0.50;;
74519;SDS011;63002;48.134;-1.948;2023-12-07T16:44:37;1.83;;;0.65;;
74519;SDS011;63002;48.134;-1.948;2023-12-07T16:47:03;2.78;;;0.68;;
74519;SDS011;63002;48.134;-1.948;2023-12-07T16:49:29;2.40;;;0.53;;
74519;SDS011;63002;48.134;-1.948;2023-12-07T16:51:55;2.30;;;0.60;;
74519;SDS011;63002;48.134;-1.948;2023-12-07T16:54:21;2.28;;;0.65;;
74519;SDS011;63002;48.134;-1.948;2023-12-07T16:56:46;1.63;;;0.40;;
74519;SDS011;63002;48.134;-1.948;2023-12-07T16:59:12;2.55;;;0.70;;
74519;SDS011;63002;48.134;-1.948;2023-12-07T17:01:38;3.57;;;0.70;;
74519;SDS011;63002;48.134;-1.948;2023-12-07T17:04:03;1.83;;;0.70;;
74519;SDS011;63002;48.134;-1.948;2023-12-07T17:06:29;2.65;;;0.60;;
74519;SDS011;63002;48.134;-1.948;2023-12-07T17:08:55;1.43;;;0.50;;
74519;SDS011;63002;48.134;-1.948;2023-12-07T17:11:21;3.38;;;0.70;;
74519;SDS011;63002;48.134;-1.948;2023-12-07T17:13:47;4.30;;;0.90;;
74519;SDS011;63002;48.134;-1.948;2023-12-07T17:16:13;4.38;;;1.00;;
74519;SDS011;63002;48.134;-1.948;2023-12-07T17:18:39;5.57;;;1.00;;
74519;SDS011;63002;48.134;-1.948;2023-12-07T17:21:05;6.88;;;1.20;;
74519;SDS011;63002;48.134;-1.948;2023-12-07T17:23:31;3.90;;;0.90;;
74519;SDS011;63002;48.134;-1.948;2023-12-07T17:25:57;3.77;;;0.80;;
74519;SDS011;63002;48.134;-1.948;2023-12-07T17:28:23;4.63;;;1.00;;
74519;SDS011;63002;48.134;-1.948;2023-12-07T17:30:49;3.57;;;0.90;;
74519;SDS011;63002;48.134;-1.948;2023-12-07T17:33:14;3.63;;;1.00;;
74519;SDS011;63002;48.134;-1.948;2023-12-07T17:35:40;2.90;;;0.70;;
74519;SDS011;63002;48.134;-1.948;2023-12-07T17:38:06;3.90;;;0.90;;
74519;SDS011;63002;48.134;-1.948;2023-12-07T17:40:32;7.00;;;1.10;;
74519;SDS011;63002;48.134;-1.948;2023-12-07T17:42:57;2.58;;;0.65;;
74519;SDS011;63002;48.134;-1.948;2023-12-07T17:45:23;5.73;;;1.00;;
74519;SDS011;63002;48.134;-1.948;2023-12-07T17:47:50;5.07;;;0.90;;
74519;SDS011;63002;48.134;-1.948;2023-12-07T17:50:15;5.47;;;1.10;;
74519;SDS011;63002;48.134;-1.948;2023-12-07T17:52:41;2.93;;;0.70;;
74519;SDS011;63002;48.134;-1.948;2023-12-07T17:55:08;2.90;;;0.90;;
74519;SDS011;63002;48.134;-1.948;2023-12-07T17:57:34;3.37;;;0.67;;
74519;SDS011;63002;48.134;-1.948;2023-12-07T17:59:59;9.27;;;1.20;;
74519;SDS011;63002;48.134;-1.948;2023-12-07T18:02:25;4.70;;;0.93;;
74519;SDS011;63002;48.134;-1.948;2023-12-07T18:04:51;4.72;;;1.48;;
74519;SDS011;63002;48.134;-1.948;2023-12-07T18:07:16;2.93;;;0.73;;
74519;SDS011;63002;48.134;-1.948;2023-12-07T18:09:42;2.67;;;0.80;;
74519;SDS011;63002;48.134;-1.948;2023-12-07T18:12:07;4.00;;;0.77;;
74519;SDS011;63002;48.134;-1.948;2023-12-07T18:14:33;6.97;;;1.07;;
74519;SDS011;63002;48.134;-1.948;2023-12-07T18:16:59;4.60;;;1.20;;
74519;SDS011;63002;48.134;-1.948;2023-12-07T18:19:25;5.47;;;0.97;;
74519;SDS011;63002;48.134;-1.948;2023-12-07T18:21:50;6.53;;;0.90;;
74519;SDS011;63002;48.134;-1.948;2023-12-07T18:24:18;4.53;;;0.82;;
74519;SDS011;63002;48.134;-1.948;2023-12-07T18:26:44;6.47;;;1.20;;
74519;SDS011;63002;48.134;-1.948;2023-12-07T18:29:09;9.70;;;1.27;;
74519;SDS011;63002;48.134;-1.948;2023-12-07T18:31:35;2.30;;;0.77;;
74519;SDS011;63002;48.134;-1.948;2023-12-07T18:34:01;2.75;;;0.63;;
74519;SDS011;63002;48.134;-1.948;2023-12-07T18:36:26;3.83;;;0.87;;
74519;SDS011;63002;48.134;-1.948;2023-12-07T18:38:52;3.50;;;1.00;;
74519;SDS011;63002;48.134;-1.948;2023-12-07T18:41:18;2.22;;;0.70;;
74519;SDS011;63002;48.134;-1.948;2023-12-07T18:43:43;4.27;;;0.83;;
74519;SDS011;63002;48.134;-1.948;2023-12-07T18:46:09;2.80;;;0.60;;
74519;SDS011;63002;48.134;-1.948;2023-12-07T18:48:36;3.53;;;0.88;;
74519;SDS011;63002;48.134;-1.948;2023-12-07T18:51:02;5.57;;;1.00;;
74519;SDS011;63002;48.134;-1.948;2023-12-07T18:53:28;4.18;;;0.90;;
74519;SDS011;63002;48.134;-1.948;2023-12-07T18:55:54;3.88;;;0.80;;
74519;SDS011;63002;48.134;-1.948;2023-12-07T18:58:21;6.57;;;1.00;;
74519;SDS011;63002;48.134;-1.948;2023-12-07T19:00:49;6.20;;;0.80;;
74519;SDS011;63002;48.134;-1.948;2023-12-07T19:03:16;3.30;;;0.93;;
74519;SDS011;63002;48.134;-1.948;2023-12-07T19:05:42;3.53;;;1.10;;
74519;SDS011;63002;48.134;-1.948;2023-12-07T19:08:11;5.53;;;1.10;;
74519;SDS011;63002;48.134;-1.948;2023-12-07T19:10:37;5.85;;;1.42;;
74519;SDS011;63002;48.134;-1.948;2023-12-07T19:13:04;7.90;;;1.50;;
74519;SDS011;63002;48.134;-1.948;2023-12-07T19:15:30;11.00;;;2.33;;
74519;SDS011;63002;48.134;-1.948;2023-12-07T19:17:56;7.30;;;2.00;;
74519;SDS011;63002;48.134;-1.948;2023-12-07T19:20:22;11.17;;;3.43;;
74519;SDS011;63002;48.134;-1.948;2023-12-07T19:22:48;12.95;;;3.80;;
74519;SDS011;63002;48.134;-1.948;2023-12-07T19:25:14;14.50;;;4.30;;
74519;SDS011;63002;48.134;-1.948;2023-12-07T19:27:40;14.60;;;4.43;;
74519;SDS011;63002;48.134;-1.948;2023-12-07T19:30:06;16.63;;;4.47;;
74519;SDS011;63002;48.134;-1.948;2023-12-07T19:32:32;16.40;;;4.53;;
74519;SDS011;63002;48.134;-1.948;2023-12-07T19:34:58;17.87;;;4.23;;
74519;SDS011;63002;48.134;-1.948;2023-12-07T19:37:23;19.83;;;3.70;;
74519;SDS011;63002;48.134;-1.948;2023-12-07T19:39:49;17.80;;;5.73;;
74519;SDS011;63002;48.134;-1.948;2023-12-07T19:42:15;33.67;;;10.23;;
74519;SDS011;63002;48.134;-1.948;2023-12-07T19:44:40;27.47;;;11.37;;
74519;SDS011;63002;48.134;-1.948;2023-12-07T19:47:06;27.27;;;11.07;;
74519;SDS011;63002;48.134;-1.948;2023-12-07T19:49:32;16.93;;;6.27;;
74519;SDS011;63002;48.134;-1.948;2023-12-07T19:51:58;17.30;;;6.88;;
74519;SDS011;63002;48.134;-1.948;2023-12-07T19:54:23;22.70;;;9.90;;
74519;SDS011;63002;48.134;-1.948;2023-12-07T19:56:50;26.33;;;9.68;;
74519;SDS011;63002;48.134;-1.948;2023-12-07T19:59:18;27.58;;;10.10;;
74519;SDS011;63002;48.134;-1.948;2023-12-07T20:01:43;25.27;;;8.63;;
74519;SDS011;63002;48.134;-1.948;2023-12-07T20:04:09;30.45;;;8.27;;
74519;SDS011;63002;48.134;-1.948;2023-12-07T20:06:36;20.33;;;6.77;;
74519;SDS011;63002;48.134;-1.948;2023-12-07T20:09:02;24.20;;;7.35;;
74519;SDS011;63002;48.134;-1.948;2023-12-07T20:11:28;19.05;;;6.60;;
74519;SDS011;63002;48.134;-1.948;2023-12-07T20:13:54;18.70;;;7.00;;
74519;SDS011;63002;48.134;-1.948;2023-12-07T20:16:20;22.13;;;7.00;;
74519;SDS011;63002;48.134;-1.948;2023-12-07T20:18:47;21.85;;;7.60;;
74519;SDS011;63002;48.134;-1.948;2023-12-07T20:21:13;21.20;;;7.05;;
74519;SDS011;63002;48.134;-1.948;2023-12-07T20:23:38;32.77;;;8.73;;
74519;SDS011;63002;48.134;-1.948;2023-12-07T20:26:07;35.72;;;10.70;;
74519;SDS011;63002;48.134;-1.948;2023-12-07T20:28:34;35.55;;;10.45;;
74519;SDS011;63002;48.134;-1.948;2023-12-07T20:31:00;31.70;;;10.27;;